sensor_id;sensor_type;location;lat;lon;timestamp;temperature;humidity
26691;DHT22;14307;51.718;8.938;2023-08-24T00:01:33;14.50;99.90
26691;DHT22;14307;51.718;8.938;2023-08-24T00:04:00;14.60;99.90
26691;DHT22;14307;51.718;8.938;2023-08-24T00:06:27;14.70;99.90
26691;DHT22;14307;51.718;8.938;2023-08-24T00:08:54;14.70;99.90
26691;DHT22;14307;51.718;8.938;2023-08-24T00:11:21;14.50;99.90
26691;DHT22;14307;51.718;8.938;2023-08-24T00:13:48;14.40;99.90
26691;DHT22;14307;51.718;8.938;2023-08-24T00:16:19;14.30;99.90
26691;DHT22;14307;51.718;8.938;2023-08-24T00:18:46;14.30;99.90
26691;DHT22;14307;51.718;8.938;2023-08-24T00:21:14;14.20;99.90
26691;DHT22;14307;51.718;8.938;2023-08-24T00:23:44;14.30;99.90
26691;DHT22;14307;51.718;8.938;2023-08-24T00:26:11;14.30;99.90
26691;DHT22;14307;51.718;8.938;2023-08-24T00:28:38;14.30;99.90
26691;DHT22;14307;51.718;8.938;2023-08-24T00:31:04;14.30;99.90
26691;DHT22;14307;51.718;8.938;2023-08-24T00:33:31;14.30;99.90
26691;DHT22;14307;51.718;8.938;2023-08-24T00:36:02;14.20;99.90
26691;DHT22;14307;51.718;8.938;2023-08-24T00:38:29;14.20;99.90
26691;DHT22;14307;51.718;8.938;2023-08-24T00:40:57;14.20;99.90
26691;DHT22;14307;51.718;8.938;2023-08-24T00:43:26;14.30;99.90
26691;DHT22;14307;51.718;8.938;2023-08-24T00:45:59;14.30;99.90
26691;DHT22;14307;51.718;8.938;2023-08-24T00:48:27;14.30;99.90
26691;DHT22;14307;51.718;8.938;2023-08-24T00:50:58;14.30;99.90
26691;DHT22;14307;51.718;8.938;2023-08-24T00:53:28;14.30;99.90
26691;DHT22;14307;51.718;8.938;2023-08-24T00:55:55;14.20;99.90
26691;DHT22;14307;51.718;8.938;2023-08-24T00:58:23;14.10;99.90
26691;DHT22;14307;51.718;8.938;2023-08-24T01:00:54;14.20;99.90
26691;DHT22;14307;51.718;8.938;2023-08-24T01:03:22;14.20;99.90
26691;DHT22;14307;51.718;8.938;2023-08-24T01:05:51;14.20;99.90
26691;DHT22;14307;51.718;8.938;2023-08-24T01:08:19;14.00;99.90
26691;DHT22;14307;51.718;8.938;2023-08-24T01:11:06;14.00;99.90
26691;DHT22;14307;51.718;8.938;2023-08-24T01:16:31;14.00;99.90
26691;DHT22;14307;51.718;8.938;2023-08-24T01:18:59;14.00;99.90
26691;DHT22;14307;51.718;8.938;2023-08-24T01:21:27;14.10;99.90
26691;DHT22;14307;51.718;8.938;2023-08-24T01:24:20;13.90;99.90
26691;DHT22;14307;51.718;8.938;2023-08-24T01:26:53;14.00;99.90
26691;DHT22;14307;51.718;8.938;2023-08-24T01:29:21;14.10;99.90
26691;DHT22;14307;51.718;8.938;2023-08-24T01:31:48;14.10;99.90
26691;DHT22;14307;51.718;8.938;2023-08-24T01:34:16;14.00;99.90
26691;DHT22;14307;51.718;8.938;2023-08-24T01:36:43;13.90;99.90
26691;DHT22;14307;51.718;8.938;2023-08-24T01:39:12;13.80;99.90
26691;DHT22;14307;51.718;8.938;2023-08-24T01:41:42;13.80;99.90
26691;DHT22;14307;51.718;8.938;2023-08-24T01:44:13;13.80;99.90
26691;DHT22;14307;51.718;8.938;2023-08-24T01:46:42;13.90;99.90
26691;DHT22;14307;51.718;8.938;2023-08-24T01:49:12;13.90;99.90
26691;DHT22;14307;51.718;8.938;2023-08-24T01:51:40;13.90;99.90
26691;DHT22;14307;51.718;8.938;2023-08-24T01:54:08;13.90;99.90
26691;DHT22;14307;51.718;8.938;2023-08-24T01:56:36;13.80;99.90
26691;DHT22;14307;51.718;8.938;2023-08-24T01:59:03;13.80;99.90
26691;DHT22;14307;51.718;8.938;2023-08-24T02:01:30;13.70;99.90
26691;DHT22;14307;51.718;8.938;2023-08-24T02:03:56;13.60;99.90
26691;DHT22;14307;51.718;8.938;2023-08-24T02:06:23;13.60;99.90
26691;DHT22;14307;51.718;8.938;2023-08-24T02:08:50;13.80;99.90
26691;DHT22;14307;51.718;8.938;2023-08-24T02:11:16;13.70;99.90
26691;DHT22;14307;51.718;8.938;2023-08-24T02:13:44;13.80;99.90
26691;DHT22;14307;51.718;8.938;2023-08-24T02:16:11;13.90;99.90
26691;DHT22;14307;51.718;8.938;2023-08-24T02:18:39;13.70;99.90
26691;DHT22;14307;51.718;8.938;2023-08-24T02:21:10;13.60;99.90
26691;DHT22;14307;51.718;8.938;2023-08-24T02:23:39;13.60;99.90
26691;DHT22;14307;51.718;8.938;2023-08-24T02:26:06;13.50;99.90
26691;DHT22;14307;51.718;8.938;2023-08-24T02:28:37;13.40;99.90
26691;DHT22;14307;51.718;8.938;2023-08-24T02:31:04;13.40;99.90
26691;DHT22;14307;51.718;8.938;2023-08-24T02:33:33;13.40;99.90
26691;DHT22;14307;51.718;8.938;2023-08-24T02:36:00;13.50;99.90
26691;DHT22;14307;51.718;8.938;2023-08-24T02:38:28;13.60;99.90
26691;DHT22;14307;51.718;8.938;2023-08-24T02:41:05;13.40;99.90
26691;DHT22;14307;51.718;8.938;2023-08-24T02:43:33;13.40;99.90
26691;DHT22;14307;51.718;8.938;2023-08-24T02:46:05;13.40;99.90
26691;DHT22;14307;51.718;8.938;2023-08-24T02:48:32;13.40;99.90
26691;DHT22;14307;51.718;8.938;2023-08-24T02:51:03;13.40;99.90
26691;DHT22;14307;51.718;8.938;2023-08-24T02:53:30;13.40;99.90
26691;DHT22;14307;51.718;8.938;2023-08-24T02:55:57;13.50;99.90
26691;DHT22;14307;51.718;8.938;2023-08-24T02:58:24;13.50;99.90
26691;DHT22;14307;51.718;8.938;2023-08-24T03:00:50;13.40;99.90
26691;DHT22;14307;51.718;8.938;2023-08-24T03:03:17;13.50;99.90
26691;DHT22;14307;51.718;8.938;2023-08-24T03:05:58;13.50;99.90
26691;DHT22;14307;51.718;8.938;2023-08-24T03:08:29;13.50;99.90
26691;DHT22;14307;51.718;8.938;2023-08-24T03:10:56;13.60;99.90
26691;DHT22;14307;51.718;8.938;2023-08-24T03:13:23;13.50;99.90
26691;DHT22;14307;51.718;8.938;2023-08-24T03:15:51;13.60;99.90
26691;DHT22;14307;51.718;8.938;2023-08-24T03:18:19;13.50;99.90
26691;DHT22;14307;51.718;8.938;2023-08-24T03:20:47;13.40;99.90
26691;DHT22;14307;51.718;8.938;2023-08-24T03:23:15;13.20;99.90
26691;DHT22;14307;51.718;8.938;2023-08-24T03:25:42;13.30;99.90
26691;DHT22;14307;51.718;8.938;2023-08-24T03:28:10;13.20;99.90
26691;DHT22;14307;51.718;8.938;2023-08-24T03:30:39;13.10;99.90
26691;DHT22;14307;51.718;8.938;2023-08-24T03:33:07;13.10;99.90
26691;DHT22;14307;51.718;8.938;2023-08-24T03:35:34;13.10;99.90
26691;DHT22;14307;51.718;8.938;2023-08-24T03:38:01;13.00;99.90
26691;DHT22;14307;51.718;8.938;2023-08-24T03:40:27;13.10;99.90
26691;DHT22;14307;51.718;8.938;2023-08-24T03:42:54;13.20;99.90
26691;DHT22;14307;51.718;8.938;2023-08-24T03:45:21;13.20;99.90
26691;DHT22;14307;51.718;8.938;2023-08-24T03:47:49;13.30;99.90
26691;DHT22;14307;51.718;8.938;2023-08-24T03:50:17;13.50;99.90
26691;DHT22;14307;51.718;8.938;2023-08-24T03:52:44;13.50;99.90
26691;DHT22;14307;51.718;8.938;2023-08-24T03:55:11;13.40;99.90
26691;DHT22;14307;51.718;8.938;2023-08-24T03:57:37;13.30;99.90
26691;DHT22;14307;51.718;8.938;2023-08-24T04:00:08;13.30;99.90
26691;DHT22;14307;51.718;8.938;2023-08-24T04:02:41;13.40;99.90
26691;DHT22;14307;51.718;8.938;2023-08-24T04:05:12;13.40;99.90
26691;DHT22;14307;51.718;8.938;2023-08-24T04:07:39;13.40;99.90
26691;DHT22;14307;51.718;8.938;2023-08-24T04:10:08;13.40;99.90
26691;DHT22;14307;51.718;8.938;2023-08-24T04:12:35;13.50;99.90
26691;DHT22;14307;51.718;8.938;2023-08-24T04:15:02;13.50;99.90
26691;DHT22;14307;51.718;8.938;2023-08-24T04:17:30;13.40;99.90
26691;DHT22;14307;51.718;8.938;2023-08-24T04:19:56;13.30;99.90
26691;DHT22;14307;51.718;8.938;2023-08-24T04:22:24;13.40;99.90
26691;DHT22;14307;51.718;8.938;2023-08-24T04:24:50;13.50;99.90
26691;DHT22;14307;51.718;8.938;2023-08-24T04:27:17;13.40;99.90
26691;DHT22;14307;51.718;8.938;2023-08-24T04:29:44;13.40;99.90
26691;DHT22;14307;51.718;8.938;2023-08-24T04:32:11;13.50;99.90
26691;DHT22;14307;51.718;8.938;2023-08-24T04:34:38;13.50;99.90
26691;DHT22;14307;51.718;8.938;2023-08-24T04:37:05;13.40;99.90
26691;DHT22;14307;51.718;8.938;2023-08-24T04:39:32;13.30;99.90
26691;DHT22;14307;51.718;8.938;2023-08-24T04:41:59;13.40;99.90
26691;DHT22;14307;51.718;8.938;2023-08-24T04:44:26;13.30;99.90
26691;DHT22;14307;51.718;8.938;2023-08-24T04:46:55;13.40;99.90
26691;DHT22;14307;51.718;8.938;2023-08-24T04:49:22;13.40;99.90
26691;DHT22;14307;51.718;8.938;2023-08-24T04:51:49;13.50;99.90
26691;DHT22;14307;51.718;8.938;2023-08-24T04:54:16;13.70;99.90
26691;DHT22;14307;51.718;8.938;2023-08-24T04:56:42;13.80;99.90
26691;DHT22;14307;51.718;8.938;2023-08-24T04:59:09;13.90;99.90
26691;DHT22;14307;51.718;8.938;2023-08-24T05:01:37;14.00;99.90
26691;DHT22;14307;51.718;8.938;2023-08-24T05:04:04;14.10;99.90
26691;DHT22;14307;51.718;8.938;2023-08-24T05:06:30;14.10;99.90
26691;DHT22;14307;51.718;8.938;2023-08-24T05:08:57;14.30;99.90
26691;DHT22;14307;51.718;8.938;2023-08-24T05:11:27;14.30;99.90
26691;DHT22;14307;51.718;8.938;2023-08-24T05:13:55;14.40;99.90
26691;DHT22;14307;51.718;8.938;2023-08-24T05:16:23;14.40;99.90
26691;DHT22;14307;51.718;8.938;2023-08-24T05:18:50;14.60;99.90
26691;DHT22;14307;51.718;8.938;2023-08-24T05:21:16;14.70;99.90
26691;DHT22;14307;51.718;8.938;2023-08-24T05:23:43;14.90;99.90
26691;DHT22;14307;51.718;8.938;2023-08-24T05:26:10;15.10;99.90
26691;DHT22;14307;51.718;8.938;2023-08-24T05:28:37;15.10;99.90
26691;DHT22;14307;51.718;8.938;2023-08-24T05:31:03;15.10;99.90
26691;DHT22;14307;51.718;8.938;2023-08-24T05:33:30;15.10;99.90
26691;DHT22;14307;51.718;8.938;2023-08-24T05:35:59;15.00;99.90
26691;DHT22;14307;51.718;8.938;2023-08-24T05:38:26;15.00;99.90
26691;DHT22;14307;51.718;8.938;2023-08-24T05:40:53;15.20;99.90
26691;DHT22;14307;51.718;8.938;2023-08-24T05:43:20;15.30;99.90
26691;DHT22;14307;51.718;8.938;2023-08-24T05:45:48;15.40;99.90
26691;DHT22;14307;51.718;8.938;2023-08-24T05:48:15;15.60;99.90
26691;DHT22;14307;51.718;8.938;2023-08-24T05:50:43;15.70;99.90
26691;DHT22;14307;51.718;8.938;2023-08-24T05:53:11;15.60;99.90
26691;DHT22;14307;51.718;8.938;2023-08-24T05:55:37;15.70;99.90
26691;DHT22;14307;51.718;8.938;2023-08-24T05:58:05;15.80;99.90
26691;DHT22;14307;51.718;8.938;2023-08-24T06:00:32;15.90;99.90
26691;DHT22;14307;51.718;8.938;2023-08-24T06:02:59;15.90;99.90
26691;DHT22;14307;51.718;8.938;2023-08-24T06:05:26;15.90;99.90
26691;DHT22;14307;51.718;8.938;2023-08-24T06:07:53;15.90;99.90
26691;DHT22;14307;51.718;8.938;2023-08-24T06:10:20;16.00;99.90
26691;DHT22;14307;51.718;8.938;2023-08-24T06:12:46;16.10;99.90
26691;DHT22;14307;51.718;8.938;2023-08-24T06:15:13;16.00;99.90
26691;DHT22;14307;51.718;8.938;2023-08-24T06:17:40;16.00;99.90
26691;DHT22;14307;51.718;8.938;2023-08-24T06:20:08;16.20;99.90
26691;DHT22;14307;51.718;8.938;2023-08-24T06:22:38;16.30;99.90
26691;DHT22;14307;51.718;8.938;2023-08-24T06:25:05;16.40;99.90
26691;DHT22;14307;51.718;8.938;2023-08-24T06:27:34;16.40;99.90
26691;DHT22;14307;51.718;8.938;2023-08-24T06:30:00;16.40;99.90
26691;DHT22;14307;51.718;8.938;2023-08-24T06:32:27;16.50;99.90
26691;DHT22;14307;51.718;8.938;2023-08-24T06:34:54;16.50;99.90
26691;DHT22;14307;51.718;8.938;2023-08-24T06:37:22;16.60;99.90
26691;DHT22;14307;51.718;8.938;2023-08-24T06:39:49;16.50;99.90
26691;DHT22;14307;51.718;8.938;2023-08-24T06:42:15;16.60;99.90
26691;DHT22;14307;51.718;8.938;2023-08-24T06:44:42;16.60;99.90
26691;DHT22;14307;51.718;8.938;2023-08-24T06:47:09;16.50;99.90
26691;DHT22;14307;51.718;8.938;2023-08-24T06:49:39;16.60;99.90
26691;DHT22;14307;51.718;8.938;2023-08-24T06:52:23;16.60;99.90
26691;DHT22;14307;51.718;8.938;2023-08-24T06:54:51;16.70;99.90
26691;DHT22;14307;51.718;8.938;2023-08-24T06:57:20;17.00;99.90
26691;DHT22;14307;51.718;8.938;2023-08-24T06:59:47;17.00;99.90
26691;DHT22;14307;51.718;8.938;2023-08-24T07:02:14;17.00;99.90
26691;DHT22;14307;51.718;8.938;2023-08-24T07:04:40;17.10;99.90
26691;DHT22;14307;51.718;8.938;2023-08-24T07:07:07;17.20;99.90
26691;DHT22;14307;51.718;8.938;2023-08-24T07:09:34;17.30;99.90
26691;DHT22;14307;51.718;8.938;2023-08-24T07:12:02;17.50;99.90
26691;DHT22;14307;51.718;8.938;2023-08-24T07:14:39;17.60;99.90
26691;DHT22;14307;51.718;8.938;2023-08-24T07:17:09;17.60;99.90
26691;DHT22;14307;51.718;8.938;2023-08-24T07:19:36;17.70;99.90
26691;DHT22;14307;51.718;8.938;2023-08-24T07:22:03;18.00;99.90
26691;DHT22;14307;51.718;8.938;2023-08-24T07:24:30;18.30;99.90
26691;DHT22;14307;51.718;8.938;2023-08-24T07:27:11;18.40;99.90
26691;DHT22;14307;51.718;8.938;2023-08-24T07:29:38;18.60;99.90
26691;DHT22;14307;51.718;8.938;2023-08-24T07:32:08;18.70;99.90
26691;DHT22;14307;51.718;8.938;2023-08-24T07:34:44;18.80;99.90
26691;DHT22;14307;51.718;8.938;2023-08-24T07:37:11;18.80;99.90
26691;DHT22;14307;51.718;8.938;2023-08-24T07:39:38;18.90;99.90
26691;DHT22;14307;51.718;8.938;2023-08-24T07:42:08;19.00;99.90
26691;DHT22;14307;51.718;8.938;2023-08-24T07:44:34;19.20;99.90
26691;DHT22;14307;51.718;8.938;2023-08-24T07:47:02;19.40;99.90
26691;DHT22;14307;51.718;8.938;2023-08-24T07:49:29;19.50;99.90
26691;DHT22;14307;51.718;8.938;2023-08-24T07:51:56;19.50;99.90
26691;DHT22;14307;51.718;8.938;2023-08-24T07:54:25;19.70;99.90
26691;DHT22;14307;51.718;8.938;2023-08-24T07:56:51;20.00;99.90
26691;DHT22;14307;51.718;8.938;2023-08-24T07:59:18;20.20;99.90
26691;DHT22;14307;51.718;8.938;2023-08-24T08:01:45;20.10;99.90
26691;DHT22;14307;51.718;8.938;2023-08-24T08:04:12;20.10;99.90
26691;DHT22;14307;51.718;8.938;2023-08-24T08:06:39;20.20;99.90
26691;DHT22;14307;51.718;8.938;2023-08-24T08:09:05;20.40;99.90
26691;DHT22;14307;51.718;8.938;2023-08-24T08:11:32;20.40;99.90
26691;DHT22;14307;51.718;8.938;2023-08-24T08:13:59;20.70;99.90
26691;DHT22;14307;51.718;8.938;2023-08-24T08:16:26;21.00;99.90
26691;DHT22;14307;51.718;8.938;2023-08-24T08:18:52;21.60;99.90
26691;DHT22;14307;51.718;8.938;2023-08-24T08:21:19;22.20;99.90
26691;DHT22;14307;51.718;8.938;2023-08-24T08:23:49;22.40;99.90
26691;DHT22;14307;51.718;8.938;2023-08-24T08:26:16;23.20;99.90
26691;DHT22;14307;51.718;8.938;2023-08-24T08:28:43;23.90;99.90
26691;DHT22;14307;51.718;8.938;2023-08-24T08:31:10;24.00;99.90
26691;DHT22;14307;51.718;8.938;2023-08-24T08:33:37;23.90;99.90
26691;DHT22;14307;51.718;8.938;2023-08-24T08:36:04;24.40;99.90
26691;DHT22;14307;51.718;8.938;2023-08-24T08:38:31;24.50;99.90
26691;DHT22;14307;51.718;8.938;2023-08-24T08:41:02;24.70;99.90
26691;DHT22;14307;51.718;8.938;2023-08-24T08:43:29;24.70;99.90
26691;DHT22;14307;51.718;8.938;2023-08-24T08:46:00;25.20;99.90
26691;DHT22;14307;51.718;8.938;2023-08-24T08:48:28;25.20;99.90
26691;DHT22;14307;51.718;8.938;2023-08-24T08:50:58;25.30;99.90
26691;DHT22;14307;51.718;8.938;2023-08-24T08:53:25;25.30;99.90
26691;DHT22;14307;51.718;8.938;2023-08-24T08:55:52;25.20;99.90
26691;DHT22;14307;51.718;8.938;2023-08-24T08:58:20;25.40;99.90
26691;DHT22;14307;51.718;8.938;2023-08-24T09:00:48;25.50;99.90
26691;DHT22;14307;51.718;8.938;2023-08-24T09:03:18;25.60;99.90
26691;DHT22;14307;51.718;8.938;2023-08-24T09:05:46;25.60;99.90
26691;DHT22;14307;51.718;8.938;2023-08-24T09:08:17;25.70;99.90
26691;DHT22;14307;51.718;8.938;2023-08-24T09:10:44;25.40;99.90
26691;DHT22;14307;51.718;8.938;2023-08-24T09:13:12;25.40;99.90
26691;DHT22;14307;51.718;8.938;2023-08-24T09:15:39;25.40;99.90
26691;DHT22;14307;51.718;8.938;2023-08-24T09:18:06;25.60;99.90
26691;DHT22;14307;51.718;8.938;2023-08-24T09:20:34;25.70;99.90
26691;DHT22;14307;51.718;8.938;2023-08-24T09:23:01;25.80;99.90
26691;DHT22;14307;51.718;8.938;2023-08-24T09:25:28;26.20;99.90
26691;DHT22;14307;51.718;8.938;2023-08-24T09:28:03;26.60;99.90
26691;DHT22;14307;51.718;8.938;2023-08-24T09:30:35;27.00;99.90
26691;DHT22;14307;51.718;8.938;2023-08-24T09:33:03;26.70;99.90
26691;DHT22;14307;51.718;8.938;2023-08-24T09:35:36;26.50;99.90
26691;DHT22;14307;51.718;8.938;2023-08-24T09:38:17;26.80;99.90
26691;DHT22;14307;51.718;8.938;2023-08-24T09:40:51;26.90;99.90
26691;DHT22;14307;51.718;8.938;2023-08-24T09:43:19;27.10;99.90
26691;DHT22;14307;51.718;8.938;2023-08-24T09:48:19;27.50;99.90
26691;DHT22;14307;51.718;8.938;2023-08-24T09:50:50;27.10;99.90
26691;DHT22;14307;51.718;8.938;2023-08-24T09:53:21;27.20;99.90
26691;DHT22;14307;51.718;8.938;2023-08-24T09:58:23;27.10;99.90
26691;DHT22;14307;51.718;8.938;2023-08-24T10:00:51;27.50;99.90
26691;DHT22;14307;51.718;8.938;2023-08-24T10:03:20;27.20;99.90
26691;DHT22;14307;51.718;8.938;2023-08-24T10:05:51;27.30;99.90
26691;DHT22;14307;51.718;8.938;2023-08-24T10:08:28;27.40;99.90
26691;DHT22;14307;51.718;8.938;2023-08-24T10:10:56;27.90;99.90
26691;DHT22;14307;51.718;8.938;2023-08-24T10:13:47;27.70;99.90
26691;DHT22;14307;51.718;8.938;2023-08-24T10:16:16;27.60;99.90
26691;DHT22;14307;51.718;8.938;2023-08-24T10:18:50;27.40;99.90
26691;DHT22;14307;51.718;8.938;2023-08-24T10:21:19;27.40;99.90
26691;DHT22;14307;51.718;8.938;2023-08-24T10:23:46;27.00;99.90
26691;DHT22;14307;51.718;8.938;2023-08-24T10:26:14;27.30;99.90
26691;DHT22;14307;51.718;8.938;2023-08-24T10:28:42;27.50;99.90
26691;DHT22;14307;51.718;8.938;2023-08-24T10:31:09;27.50;99.90
26691;DHT22;14307;51.718;8.938;2023-08-24T10:33:35;27.50;99.90
26691;DHT22;14307;51.718;8.938;2023-08-24T10:36:06;27.80;99.90
26691;DHT22;14307;51.718;8.938;2023-08-24T10:38:35;27.90;99.90
26691;DHT22;14307;51.718;8.938;2023-08-24T10:41:06;27.90;99.90
26691;DHT22;14307;51.718;8.938;2023-08-24T10:43:49;27.70;99.90
26691;DHT22;14307;51.718;8.938;2023-08-24T10:46:16;27.80;99.90
26691;DHT22;14307;51.718;8.938;2023-08-24T10:56:18;27.20;99.90
26691;DHT22;14307;51.718;8.938;2023-08-24T10:58:45;27.40;99.90
26691;DHT22;14307;51.718;8.938;2023-08-24T11:03:49;27.60;99.90
26691;DHT22;14307;51.718;8.938;2023-08-24T11:06:25;27.40;99.90
26691;DHT22;14307;51.718;8.938;2023-08-24T11:09:06;27.80;99.90
26691;DHT22;14307;51.718;8.938;2023-08-24T11:11:40;27.90;99.90
26691;DHT22;14307;51.718;8.938;2023-08-24T11:14:18;27.90;99.90
26691;DHT22;14307;51.718;8.938;2023-08-24T11:16:59;27.70;99.90
26691;DHT22;14307;51.718;8.938;2023-08-24T11:19:53;27.50;99.90
26691;DHT22;14307;51.718;8.938;2023-08-24T11:22:21;27.50;99.90
26691;DHT22;14307;51.718;8.938;2023-08-24T11:24:48;27.40;99.90
26691;DHT22;14307;51.718;8.938;2023-08-24T11:27:15;27.00;99.90
26691;DHT22;14307;51.718;8.938;2023-08-24T11:29:43;27.00;99.90
26691;DHT22;14307;51.718;8.938;2023-08-24T11:32:10;27.00;99.90
26691;DHT22;14307;51.718;8.938;2023-08-24T11:34:36;27.20;99.90
26691;DHT22;14307;51.718;8.938;2023-08-24T11:37:04;27.10;99.90
26691;DHT22;14307;51.718;8.938;2023-08-24T11:39:31;27.40;99.90
26691;DHT22;14307;51.718;8.938;2023-08-24T11:42:02;27.30;99.90
26691;DHT22;14307;51.718;8.938;2023-08-24T11:44:44;27.10;99.90
26691;DHT22;14307;51.718;8.938;2023-08-24T11:47:11;27.00;99.90
26691;DHT22;14307;51.718;8.938;2023-08-24T11:49:38;27.20;99.90
26691;DHT22;14307;51.718;8.938;2023-08-24T11:52:04;27.00;99.90
26691;DHT22;14307;51.718;8.938;2023-08-24T11:54:36;26.90;99.90
26691;DHT22;14307;51.718;8.938;2023-08-24T11:57:08;26.70;99.90
26691;DHT22;14307;51.718;8.938;2023-08-24T11:59:37;26.60;99.90
26691;DHT22;14307;51.718;8.938;2023-08-24T12:02:05;26.50;99.90
26691;DHT22;14307;51.718;8.938;2023-08-24T12:04:39;26.80;99.90
26691;DHT22;14307;51.718;8.938;2023-08-24T12:07:11;26.90;99.90
26691;DHT22;14307;51.718;8.938;2023-08-24T12:09:39;26.90;99.90
26691;DHT22;14307;51.718;8.938;2023-08-24T12:12:17;27.20;99.90
26691;DHT22;14307;51.718;8.938;2023-08-24T12:14:46;27.50;99.90
26691;DHT22;14307;51.718;8.938;2023-08-24T12:17:14;27.70;99.90
26691;DHT22;14307;51.718;8.938;2023-08-24T12:19:42;27.40;99.90
26691;DHT22;14307;51.718;8.938;2023-08-24T12:22:17;27.10;99.90
26691;DHT22;14307;51.718;8.938;2023-08-24T12:24:46;26.80;99.90
26691;DHT22;14307;51.718;8.938;2023-08-24T12:27:20;26.90;99.90
26691;DHT22;14307;51.718;8.938;2023-08-24T12:29:47;27.10;99.90
26691;DHT22;14307;51.718;8.938;2023-08-24T12:32:14;27.20;99.90
26691;DHT22;14307;51.718;8.938;2023-08-24T12:34:47;27.30;99.90
26691;DHT22;14307;51.718;8.938;2023-08-24T12:37:13;27.40;99.90
26691;DHT22;14307;51.718;8.938;2023-08-24T12:39:40;27.50;99.90
26691;DHT22;14307;51.718;8.938;2023-08-24T12:42:07;27.10;99.90
26691;DHT22;14307;51.718;8.938;2023-08-24T12:44:34;26.80;99.90
26691;DHT22;14307;51.718;8.938;2023-08-24T12:47:03;26.60;99.90
26691;DHT22;14307;51.718;8.938;2023-08-24T12:49:30;26.70;99.90
26691;DHT22;14307;51.718;8.938;2023-08-24T12:51:56;26.60;99.90
26691;DHT22;14307;51.718;8.938;2023-08-24T12:54:23;26.60;99.90
26691;DHT22;14307;51.718;8.938;2023-08-24T12:56:51;26.70;99.90
26691;DHT22;14307;51.718;8.938;2023-08-24T12:59:18;27.10;99.90
26691;DHT22;14307;51.718;8.938;2023-08-24T13:01:45;26.90;99.90
26691;DHT22;14307;51.718;8.938;2023-08-24T13:04:12;26.80;99.90
26691;DHT22;14307;51.718;8.938;2023-08-24T13:06:38;26.90;99.90
26691;DHT22;14307;51.718;8.938;2023-08-24T13:09:05;26.90;99.90
26691;DHT22;14307;51.718;8.938;2023-08-24T13:11:32;27.00;99.90
26691;DHT22;14307;51.718;8.938;2023-08-24T13:13:59;27.00;99.90
26691;DHT22;14307;51.718;8.938;2023-08-24T13:16:26;27.00;99.90
26691;DHT22;14307;51.718;8.938;2023-08-24T13:18:54;26.90;99.90
26691;DHT22;14307;51.718;8.938;2023-08-24T13:21:21;27.00;99.90
26691;DHT22;14307;51.718;8.938;2023-08-24T13:23:48;26.90;99.90
26691;DHT22;14307;51.718;8.938;2023-08-24T13:26:21;26.90;99.90
26691;DHT22;14307;51.718;8.938;2023-08-24T13:28:50;27.10;99.90
26691;DHT22;14307;51.718;8.938;2023-08-24T13:31:17;27.30;99.90
26691;DHT22;14307;51.718;8.938;2023-08-24T13:33:51;27.10;99.90
26691;DHT22;14307;51.718;8.938;2023-08-24T13:36:18;27.00;99.90
26691;DHT22;14307;51.718;8.938;2023-08-24T13:38:45;27.10;99.90
26691;DHT22;14307;51.718;8.938;2023-08-24T13:41:12;27.00;99.90
26691;DHT22;14307;51.718;8.938;2023-08-24T13:43:39;27.10;99.90
26691;DHT22;14307;51.718;8.938;2023-08-24T13:46:06;27.10;99.90
26691;DHT22;14307;51.718;8.938;2023-08-24T13:48:33;27.10;99.90
26691;DHT22;14307;51.718;8.938;2023-08-24T13:51:01;27.20;99.90
26691;DHT22;14307;51.718;8.938;2023-08-24T13:53:27;27.20;99.90
26691;DHT22;14307;51.718;8.938;2023-08-24T13:55:54;27.10;99.90
26691;DHT22;14307;51.718;8.938;2023-08-24T13:58:21;27.00;99.90
26691;DHT22;14307;51.718;8.938;2023-08-24T14:00:54;26.90;99.90
26691;DHT22;14307;51.718;8.938;2023-08-24T14:03:21;27.00;99.90
26691;DHT22;14307;51.718;8.938;2023-08-24T14:05:48;27.40;99.90
26691;DHT22;14307;51.718;8.938;2023-08-24T14:08:16;27.40;99.90
26691;DHT22;14307;51.718;8.938;2023-08-24T14:10:43;27.40;99.90
26691;DHT22;14307;51.718;8.938;2023-08-24T14:13:10;27.60;99.90
26691;DHT22;14307;51.718;8.938;2023-08-24T14:15:36;27.60;99.90
26691;DHT22;14307;51.718;8.938;2023-08-24T14:18:03;27.70;99.90
26691;DHT22;14307;51.718;8.938;2023-08-24T14:20:30;27.60;99.90
26691;DHT22;14307;51.718;8.938;2023-08-24T14:22:57;27.70;99.90
26691;DHT22;14307;51.718;8.938;2023-08-24T14:25:24;27.60;99.90
26691;DHT22;14307;51.718;8.938;2023-08-24T14:27:51;27.50;99.90
26691;DHT22;14307;51.718;8.938;2023-08-24T14:30:30;27.60;99.90
26691;DHT22;14307;51.718;8.938;2023-08-24T14:32:57;27.60;99.90
26691;DHT22;14307;51.718;8.938;2023-08-24T14:35:24;27.60;99.90
26691;DHT22;14307;51.718;8.938;2023-08-24T14:37:51;27.60;99.90
26691;DHT22;14307;51.718;8.938;2023-08-24T14:40:18;27.50;99.90
26691;DHT22;14307;51.718;8.938;2023-08-24T14:42:46;27.40;99.90
26691;DHT22;14307;51.718;8.938;2023-08-24T14:45:16;27.30;99.90
26691;DHT22;14307;51.718;8.938;2023-08-24T14:47:45;27.20;99.90
26691;DHT22;14307;51.718;8.938;2023-08-24T14:50:12;27.30;99.90
26691;DHT22;14307;51.718;8.938;2023-08-24T14:52:40;27.30;99.90
26691;DHT22;14307;51.718;8.938;2023-08-24T14:55:07;27.30;99.90
26691;DHT22;14307;51.718;8.938;2023-08-24T14:57:37;27.20;99.90
26691;DHT22;14307;51.718;8.938;2023-08-24T15:00:04;27.20;99.90
26691;DHT22;14307;51.718;8.938;2023-08-24T15:02:32;27.10;99.90
26691;DHT22;14307;51.718;8.938;2023-08-24T15:04:59;27.10;99.90
26691;DHT22;14307;51.718;8.938;2023-08-24T15:07:26;27.00;99.90
26691;DHT22;14307;51.718;8.938;2023-08-24T15:09:53;27.00;99.90
26691;DHT22;14307;51.718;8.938;2023-08-24T15:12:21;27.00;99.90
26691;DHT22;14307;51.718;8.938;2023-08-24T15:14:59;26.90;99.90
26691;DHT22;14307;51.718;8.938;2023-08-24T15:17:30;26.80;99.90
26691;DHT22;14307;51.718;8.938;2023-08-24T15:19:56;26.80;99.90
26691;DHT22;14307;51.718;8.938;2023-08-24T15:22:24;26.80;99.90
26691;DHT22;14307;51.718;8.938;2023-08-24T15:24:55;26.60;99.90
26691;DHT22;14307;51.718;8.938;2023-08-24T15:27:22;26.50;99.90
26691;DHT22;14307;51.718;8.938;2023-08-24T15:29:49;26.50;99.90
26691;DHT22;14307;51.718;8.938;2023-08-24T15:32:18;26.50;99.90
26691;DHT22;14307;51.718;8.938;2023-08-24T15:34:45;26.40;99.90
26691;DHT22;14307;51.718;8.938;2023-08-24T15:37:12;26.40;99.90
26691;DHT22;14307;51.718;8.938;2023-08-24T15:39:40;26.20;99.90
26691;DHT22;14307;51.718;8.938;2023-08-24T15:42:07;26.20;99.90
26691;DHT22;14307;51.718;8.938;2023-08-24T15:44:34;26.30;99.90
26691;DHT22;14307;51.718;8.938;2023-08-24T15:47:01;26.30;99.90
26691;DHT22;14307;51.718;8.938;2023-08-24T15:49:28;26.30;99.90
26691;DHT22;14307;51.718;8.938;2023-08-24T15:51:55;26.30;99.90
26691;DHT22;14307;51.718;8.938;2023-08-24T15:54:21;26.30;99.90
26691;DHT22;14307;51.718;8.938;2023-08-24T15:56:51;26.20;99.90